Terminal Aerodrome Forecast
Issued by NWS Lake Charles, LA

Home | Current Version | Previous Version | Text Only | Print | Product List | Glossary On
Versions: 1 2 3 4 5 6 7 8 9 10 11 12 13 14
945
FTUS44 KLCH 112322
TAFBPT
TAF
KBPT 112322Z 1200/1224 21011G17KT P6SM SKC
     FM120100 22006KT P6SM SKC
     FM120500 21004KT 4SM BR SCT007
      TEMPO 1210/1214 1SM BR BKN003
     FM121500 24008KT P6SM SCT020
     FM121800 26012KT P6SM SCT250=

USA.gov is the U.S. government's official web portal to all federal, state and local government web resources and services.